sensor_id;sensor_type;location;lat;lon;timestamp;P1;durP1;ratioP1;P2;durP2;ratioP2
43297;SDS011;28892;55.640;37.532;2023-08-07T00:01:54;5.00;;;3.72;;
43297;SDS011;28892;55.640;37.532;2023-08-07T00:04:20;6.20;;;3.50;;
43297;SDS011;28892;55.640;37.532;2023-08-07T00:06:46;4.93;;;3.55;;
43297;SDS011;28892;55.640;37.532;2023-08-07T00:09:12;4.97;;;3.42;;
43297;SDS011;28892;55.640;37.532;2023-08-07T00:11:37;4.32;;;3.63;;
43297;SDS011;28892;55.640;37.532;2023-08-07T00:14:03;5.32;;;3.67;;
43297;SDS011;28892;55.640;37.532;2023-08-07T00:16:29;10.25;;;4.70;;
43297;SDS011;28892;55.640;37.532;2023-08-07T00:18:55;5.75;;;3.67;;
43297;SDS011;28892;55.640;37.532;2023-08-07T00:21:22;7.28;;;3.55;;
43297;SDS011;28892;55.640;37.532;2023-08-07T00:23:48;5.43;;;3.70;;
43297;SDS011;28892;55.640;37.532;2023-08-07T00:26:15;5.28;;;3.80;;
43297;SDS011;28892;55.640;37.532;2023-08-07T00:28:41;5.50;;;3.63;;
43297;SDS011;28892;55.640;37.532;2023-08-07T00:31:07;5.68;;;3.70;;
43297;SDS011;28892;55.640;37.532;2023-08-07T00:33:33;6.13;;;4.03;;
43297;SDS011;28892;55.640;37.532;2023-08-07T00:35:58;7.25;;;3.92;;
43297;SDS011;28892;55.640;37.532;2023-08-07T00:38:27;6.90;;;4.22;;
43297;SDS011;28892;55.640;37.532;2023-08-07T00:40:53;6.28;;;4.32;;
43297;SDS011;28892;55.640;37.532;2023-08-07T00:43:19;5.15;;;3.72;;
43297;SDS011;28892;55.640;37.532;2023-08-07T00:45:45;7.07;;;3.80;;
43297;SDS011;28892;55.640;37.532;2023-08-07T00:48:12;6.13;;;4.28;;
43297;SDS011;28892;55.640;37.532;2023-08-07T00:50:41;4.97;;;4.10;;
43297;SDS011;28892;55.640;37.532;2023-08-07T00:53:09;5.90;;;4.18;;
43297;SDS011;28892;55.640;37.532;2023-08-07T00:55:35;4.97;;;3.97;;
43297;SDS011;28892;55.640;37.532;2023-08-07T00:58:01;4.97;;;4.07;;
43297;SDS011;28892;55.640;37.532;2023-08-07T01:00:27;5.00;;;4.18;;
43297;SDS011;28892;55.640;37.532;2023-08-07T01:02:58;6.13;;;4.32;;
43297;SDS011;28892;55.640;37.532;2023-08-07T01:05:25;8.23;;;4.47;;
43297;SDS011;28892;55.640;37.532;2023-08-07T01:07:51;7.03;;;4.15;;
43297;SDS011;28892;55.640;37.532;2023-08-07T01:10:25;8.50;;;4.35;;
43297;SDS011;28892;55.640;37.532;2023-08-07T01:16:26;8.75;;;4.85;;
43297;SDS011;28892;55.640;37.532;2023-08-07T01:19:00;6.38;;;4.68;;
43297;SDS011;28892;55.640;37.532;2023-08-07T01:21:37;7.07;;;4.43;;
43297;SDS011;28892;55.640;37.532;2023-08-07T01:24:03;5.70;;;4.38;;
43297;SDS011;28892;55.640;37.532;2023-08-07T01:26:29;6.75;;;4.55;;
43297;SDS011;28892;55.640;37.532;2023-08-07T01:31:37;7.20;;;4.32;;
43297;SDS011;28892;55.640;37.532;2023-08-07T01:34:08;6.47;;;4.40;;
43297;SDS011;28892;55.640;37.532;2023-08-07T01:36:38;5.38;;;4.50;;
43297;SDS011;28892;55.640;37.532;2023-08-07T01:39:05;4.72;;;4.20;;
43297;SDS011;28892;55.640;37.532;2023-08-07T01:41:34;7.97;;;4.30;;
43297;SDS011;28892;55.640;37.532;2023-08-07T01:44:03;5.35;;;4.75;;
43297;SDS011;28892;55.640;37.532;2023-08-07T01:46:30;5.22;;;3.88;;
43297;SDS011;28892;55.640;37.532;2023-08-07T01:48:56;10.63;;;5.03;;
43297;SDS011;28892;55.640;37.532;2023-08-07T01:51:22;7.28;;;4.32;;
43297;SDS011;28892;55.640;37.532;2023-08-07T01:53:49;4.88;;;4.25;;
43297;SDS011;28892;55.640;37.532;2023-08-07T01:56:15;5.20;;;3.92;;
43297;SDS011;28892;55.640;37.532;2023-08-07T01:58:40;6.28;;;4.00;;
43297;SDS011;28892;55.640;37.532;2023-08-07T02:01:06;4.43;;;3.92;;
43297;SDS011;28892;55.640;37.532;2023-08-07T02:03:32;6.95;;;4.30;;
43297;SDS011;28892;55.640;37.532;2023-08-07T02:05:59;6.38;;;4.25;;
43297;SDS011;28892;55.640;37.532;2023-08-07T02:08:26;8.30;;;5.00;;
43297;SDS011;28892;55.640;37.532;2023-08-07T02:10:55;7.18;;;4.40;;
43297;SDS011;28892;55.640;37.532;2023-08-07T02:13:21;6.78;;;4.32;;
43297;SDS011;28892;55.640;37.532;2023-08-07T02:15:47;5.93;;;4.13;;
43297;SDS011;28892;55.640;37.532;2023-08-07T02:18:13;6.78;;;4.38;;
43297;SDS011;28892;55.640;37.532;2023-08-07T02:20:41;7.18;;;4.20;;
43297;SDS011;28892;55.640;37.532;2023-08-07T02:23:11;6.78;;;4.70;;
43297;SDS011;28892;55.640;37.532;2023-08-07T02:25:37;7.35;;;4.30;;
43297;SDS011;28892;55.640;37.532;2023-08-07T02:28:25;9.52;;;4.82;;
43297;SDS011;28892;55.640;37.532;2023-08-07T02:30:59;9.02;;;4.68;;
43297;SDS011;28892;55.640;37.532;2023-08-07T02:33:26;6.47;;;5.05;;
43297;SDS011;28892;55.640;37.532;2023-08-07T02:35:52;6.85;;;4.78;;
43297;SDS011;28892;55.640;37.532;2023-08-07T02:38:18;8.52;;;4.47;;
43297;SDS011;28892;55.640;37.532;2023-08-07T02:40:43;7.95;;;5.20;;
43297;SDS011;28892;55.640;37.532;2023-08-07T02:43:09;9.35;;;4.80;;
43297;SDS011;28892;55.640;37.532;2023-08-07T02:45:36;5.80;;;4.72;;
43297;SDS011;28892;55.640;37.532;2023-08-07T02:48:07;7.18;;;4.82;;
43297;SDS011;28892;55.640;37.532;2023-08-07T02:50:33;7.68;;;4.93;;
43297;SDS011;28892;55.640;37.532;2023-08-07T02:52:59;5.20;;;4.50;;
43297;SDS011;28892;55.640;37.532;2023-08-07T02:55:25;12.00;;;5.32;;
43297;SDS011;28892;55.640;37.532;2023-08-07T02:57:51;7.60;;;4.78;;
43297;SDS011;28892;55.640;37.532;2023-08-07T03:00:17;8.98;;;5.05;;
43297;SDS011;28892;55.640;37.532;2023-08-07T03:02:46;7.40;;;4.93;;
43297;SDS011;28892;55.640;37.532;2023-08-07T03:05:12;5.68;;;4.63;;
43297;SDS011;28892;55.640;37.532;2023-08-07T03:07:38;7.47;;;4.45;;
43297;SDS011;28892;55.640;37.532;2023-08-07T03:10:04;5.47;;;4.30;;
43297;SDS011;28892;55.640;37.532;2023-08-07T03:12:30;8.10;;;4.72;;
43297;SDS011;28892;55.640;37.532;2023-08-07T03:14:56;9.95;;;4.70;;
43297;SDS011;28892;55.640;37.532;2023-08-07T03:17:22;8.57;;;4.60;;
43297;SDS011;28892;55.640;37.532;2023-08-07T03:19:48;5.55;;;4.60;;
43297;SDS011;28892;55.640;37.532;2023-08-07T03:22:15;6.70;;;4.25;;
43297;SDS011;28892;55.640;37.532;2023-08-07T03:24:51;8.68;;;4.57;;
43297;SDS011;28892;55.640;37.532;2023-08-07T03:27:17;7.45;;;4.30;;
43297;SDS011;28892;55.640;37.532;2023-08-07T03:29:43;7.70;;;4.80;;
43297;SDS011;28892;55.640;37.532;2023-08-07T03:32:08;5.90;;;4.45;;
43297;SDS011;28892;55.640;37.532;2023-08-07T03:34:37;8.55;;;4.03;;
43297;SDS011;28892;55.640;37.532;2023-08-07T03:37:04;8.85;;;4.32;;
43297;SDS011;28892;55.640;37.532;2023-08-07T03:39:31;9.93;;;4.30;;
43297;SDS011;28892;55.640;37.532;2023-08-07T03:42:02;11.25;;;4.10;;
43297;SDS011;28892;55.640;37.532;2023-08-07T03:44:31;7.05;;;4.15;;
43297;SDS011;28892;55.640;37.532;2023-08-07T03:46:58;6.97;;;4.03;;
43297;SDS011;28892;55.640;37.532;2023-08-07T03:49:28;5.57;;;4.00;;
43297;SDS011;28892;55.640;37.532;2023-08-07T03:51:54;7.68;;;4.65;;
43297;SDS011;28892;55.640;37.532;2023-08-07T03:54:19;8.50;;;4.55;;
43297;SDS011;28892;55.640;37.532;2023-08-07T03:56:46;5.28;;;4.25;;
43297;SDS011;28892;55.640;37.532;2023-08-07T03:59:12;6.80;;;4.30;;
43297;SDS011;28892;55.640;37.532;2023-08-07T04:01:38;4.18;;;3.50;;
43297;SDS011;28892;55.640;37.532;2023-08-07T04:04:04;5.72;;;3.75;;
43297;SDS011;28892;55.640;37.532;2023-08-07T04:06:30;5.78;;;3.40;;
43297;SDS011;28892;55.640;37.532;2023-08-07T04:08:56;4.63;;;3.50;;
43297;SDS011;28892;55.640;37.532;2023-08-07T04:11:22;5.57;;;3.45;;
43297;SDS011;28892;55.640;37.532;2023-08-07T04:13:51;5.78;;;3.30;;
43297;SDS011;28892;55.640;37.532;2023-08-07T04:16:17;5.20;;;3.53;;
43297;SDS011;28892;55.640;37.532;2023-08-07T04:18:43;5.38;;;3.35;;
43297;SDS011;28892;55.640;37.532;2023-08-07T04:23:44;4.97;;;3.33;;
43297;SDS011;28892;55.640;37.532;2023-08-07T04:26:12;5.57;;;3.20;;
43297;SDS011;28892;55.640;37.532;2023-08-07T04:28:44;4.57;;;2.88;;
43297;SDS011;28892;55.640;37.532;2023-08-07T04:31:12;4.95;;;2.97;;
43297;SDS011;28892;55.640;37.532;2023-08-07T04:33:50;8.32;;;3.25;;
43297;SDS011;28892;55.640;37.532;2023-08-07T04:36:19;6.60;;;3.15;;
43297;SDS011;28892;55.640;37.532;2023-08-07T04:38:46;5.03;;;3.13;;
43297;SDS011;28892;55.640;37.532;2023-08-07T04:41:12;6.50;;;3.05;;
43297;SDS011;28892;55.640;37.532;2023-08-07T04:43:40;6.30;;;3.17;;
43297;SDS011;28892;55.640;37.532;2023-08-07T04:46:09;4.30;;;2.80;;
43297;SDS011;28892;55.640;37.532;2023-08-07T04:48:35;5.57;;;3.10;;
43297;SDS011;28892;55.640;37.532;2023-08-07T04:51:04;5.03;;;3.20;;
43297;SDS011;28892;55.640;37.532;2023-08-07T04:53:33;4.75;;;3.47;;
43297;SDS011;28892;55.640;37.532;2023-08-07T04:56:02;5.43;;;3.67;;
43297;SDS011;28892;55.640;37.532;2023-08-07T04:58:31;5.57;;;3.30;;
43297;SDS011;28892;55.640;37.532;2023-08-07T05:00:57;6.47;;;3.00;;
43297;SDS011;28892;55.640;37.532;2023-08-07T05:03:24;4.63;;;3.13;;
43297;SDS011;28892;55.640;37.532;2023-08-07T05:05:58;4.80;;;3.10;;
43297;SDS011;28892;55.640;37.532;2023-08-07T05:08:25;5.82;;;2.90;;
43297;SDS011;28892;55.640;37.532;2023-08-07T05:10:51;4.88;;;3.22;;
43297;SDS011;28892;55.640;37.532;2023-08-07T05:13:17;6.85;;;3.00;;
43297;SDS011;28892;55.640;37.532;2023-08-07T05:15:48;5.57;;;3.03;;
43297;SDS011;28892;55.640;37.532;2023-08-07T05:18:15;3.03;;;2.63;;
43297;SDS011;28892;55.640;37.532;2023-08-07T05:20:41;4.72;;;2.83;;
43297;SDS011;28892;55.640;37.532;2023-08-07T05:23:07;3.67;;;2.47;;
43297;SDS011;28892;55.640;37.532;2023-08-07T05:25:33;4.40;;;3.00;;
43297;SDS011;28892;55.640;37.532;2023-08-07T05:27:59;5.13;;;2.80;;
43297;SDS011;28892;55.640;37.532;2023-08-07T05:30:25;4.25;;;3.10;;
43297;SDS011;28892;55.640;37.532;2023-08-07T05:32:51;6.15;;;2.88;;
43297;SDS011;28892;55.640;37.532;2023-08-07T05:35:17;4.13;;;2.50;;
43297;SDS011;28892;55.640;37.532;2023-08-07T05:37:43;3.35;;;2.53;;
43297;SDS011;28892;55.640;37.532;2023-08-07T05:40:11;4.80;;;2.90;;
43297;SDS011;28892;55.640;37.532;2023-08-07T05:42:37;6.13;;;3.05;;
43297;SDS011;28892;55.640;37.532;2023-08-07T05:45:06;5.00;;;2.65;;
43297;SDS011;28892;55.640;37.532;2023-08-07T05:47:41;7.38;;;2.67;;
43297;SDS011;28892;55.640;37.532;2023-08-07T05:50:07;3.70;;;2.70;;
43297;SDS011;28892;55.640;37.532;2023-08-07T05:52:34;7.85;;;2.85;;
43297;SDS011;28892;55.640;37.532;2023-08-07T05:55:00;4.03;;;2.72;;
43297;SDS011;28892;55.640;37.532;2023-08-07T05:57:28;6.70;;;2.70;;
43297;SDS011;28892;55.640;37.532;2023-08-07T05:59:54;4.13;;;2.58;;
43297;SDS011;28892;55.640;37.532;2023-08-07T06:02:20;6.20;;;2.50;;
43297;SDS011;28892;55.640;37.532;2023-08-07T06:04:46;5.85;;;2.53;;
43297;SDS011;28892;55.640;37.532;2023-08-07T06:07:13;4.93;;;2.40;;
43297;SDS011;28892;55.640;37.532;2023-08-07T06:09:39;4.97;;;2.30;;
43297;SDS011;28892;55.640;37.532;2023-08-07T06:12:05;6.38;;;2.38;;
43297;SDS011;28892;55.640;37.532;2023-08-07T06:14:32;5.85;;;2.42;;
43297;SDS011;28892;55.640;37.532;2023-08-07T06:16:58;5.82;;;2.83;;
43297;SDS011;28892;55.640;37.532;2023-08-07T06:19:25;4.38;;;2.45;;
43297;SDS011;28892;55.640;37.532;2023-08-07T06:21:52;8.20;;;2.90;;
43297;SDS011;28892;55.640;37.532;2023-08-07T06:24:25;5.75;;;2.53;;
43297;SDS011;28892;55.640;37.532;2023-08-07T06:26:51;4.05;;;2.47;;
43297;SDS011;28892;55.640;37.532;2023-08-07T06:29:17;5.15;;;2.78;;
43297;SDS011;28892;55.640;37.532;2023-08-07T06:31:45;3.42;;;2.20;;
43297;SDS011;28892;55.640;37.532;2023-08-07T06:34:11;3.40;;;2.22;;
43297;SDS011;28892;55.640;37.532;2023-08-07T06:36:37;4.18;;;2.30;;
43297;SDS011;28892;55.640;37.532;2023-08-07T06:39:03;7.05;;;2.50;;
43297;SDS011;28892;55.640;37.532;2023-08-07T06:41:35;5.15;;;2.70;;
43297;SDS011;28892;55.640;37.532;2023-08-07T06:44:05;6.00;;;2.70;;
43297;SDS011;28892;55.640;37.532;2023-08-07T06:46:31;4.18;;;2.40;;
43297;SDS011;28892;55.640;37.532;2023-08-07T06:48:57;5.00;;;2.33;;
43297;SDS011;28892;55.640;37.532;2023-08-07T06:51:23;4.78;;;2.50;;
43297;SDS011;28892;55.640;37.532;2023-08-07T06:53:49;7.82;;;2.42;;
43297;SDS011;28892;55.640;37.532;2023-08-07T06:56:15;5.25;;;2.78;;
43297;SDS011;28892;55.640;37.532;2023-08-07T06:58:40;3.90;;;2.30;;
43297;SDS011;28892;55.640;37.532;2023-08-07T07:01:07;6.57;;;2.30;;
43297;SDS011;28892;55.640;37.532;2023-08-07T07:03:33;5.13;;;2.00;;
43297;SDS011;28892;55.640;37.532;2023-08-07T07:06:03;6.47;;;2.30;;
43297;SDS011;28892;55.640;37.532;2023-08-07T07:08:29;5.88;;;2.10;;
43297;SDS011;28892;55.640;37.532;2023-08-07T07:10:55;2.58;;;1.90;;
43297;SDS011;28892;55.640;37.532;2023-08-07T07:13:24;4.13;;;2.20;;
43297;SDS011;28892;55.640;37.532;2023-08-07T07:15:54;7.43;;;2.22;;
43297;SDS011;28892;55.640;37.532;2023-08-07T07:18:25;4.68;;;2.00;;
43297;SDS011;28892;55.640;37.532;2023-08-07T07:20:57;6.03;;;2.00;;
43297;SDS011;28892;55.640;37.532;2023-08-07T07:23:52;8.73;;;2.03;;
43297;SDS011;28892;55.640;37.532;2023-08-07T07:26:31;6.75;;;1.95;;
43297;SDS011;28892;55.640;37.532;2023-08-07T07:28:57;7.05;;;2.10;;
43297;SDS011;28892;55.640;37.532;2023-08-07T07:31:23;6.10;;;2.13;;
43297;SDS011;28892;55.640;37.532;2023-08-07T07:37:18;4.88;;;2.15;;
43297;SDS011;28892;55.640;37.532;2023-08-07T07:39:43;6.38;;;2.40;;
43297;SDS011;28892;55.640;37.532;2023-08-07T07:42:17;5.70;;;2.17;;
43297;SDS011;28892;55.640;37.532;2023-08-07T07:48:50;6.80;;;2.03;;
43297;SDS011;28892;55.640;37.532;2023-08-07T07:51:24;4.60;;;2.28;;
43297;SDS011;28892;55.640;37.532;2023-08-07T07:54:10;3.10;;;1.73;;
43297;SDS011;28892;55.640;37.532;2023-08-07T07:56:39;9.07;;;2.13;;
43297;SDS011;28892;55.640;37.532;2023-08-07T08:03:41;7.47;;;2.22;;
43297;SDS011;28892;55.640;37.532;2023-08-07T08:11:41;6.95;;;2.13;;
43297;SDS011;28892;55.640;37.532;2023-08-07T08:14:08;3.53;;;1.90;;
43297;SDS011;28892;55.640;37.532;2023-08-07T08:16:42;7.43;;;2.10;;
43297;SDS011;28892;55.640;37.532;2023-08-07T08:22:03;6.18;;;1.88;;
43297;SDS011;28892;55.640;37.532;2023-08-07T08:24:29;4.80;;;2.15;;
43297;SDS011;28892;55.640;37.532;2023-08-07T08:26:57;5.60;;;2.20;;
43297;SDS011;28892;55.640;37.532;2023-08-07T08:29:23;6.45;;;2.22;;
43297;SDS011;28892;55.640;37.532;2023-08-07T08:31:52;7.57;;;2.42;;
43297;SDS011;28892;55.640;37.532;2023-08-07T08:34:20;4.03;;;1.70;;
43297;SDS011;28892;55.640;37.532;2023-08-07T08:36:47;7.13;;;1.92;;
43297;SDS011;28892;55.640;37.532;2023-08-07T08:39:13;4.68;;;2.10;;
43297;SDS011;28892;55.640;37.532;2023-08-07T08:41:39;2.88;;;1.88;;
43297;SDS011;28892;55.640;37.532;2023-08-07T08:44:12;5.63;;;2.10;;
43297;SDS011;28892;55.640;37.532;2023-08-07T08:46:47;5.93;;;2.00;;
43297;SDS011;28892;55.640;37.532;2023-08-07T08:49:20;7.60;;;2.20;;
43297;SDS011;28892;55.640;37.532;2023-08-07T08:51:53;3.88;;;2.05;;
43297;SDS011;28892;55.640;37.532;2023-08-07T08:54:24;8.00;;;1.80;;
43297;SDS011;28892;55.640;37.532;2023-08-07T08:57:00;2.38;;;1.80;;
43297;SDS011;28892;55.640;37.532;2023-08-07T08:59:26;4.80;;;2.00;;
43297;SDS011;28892;55.640;37.532;2023-08-07T09:01:54;6.00;;;1.90;;
43297;SDS011;28892;55.640;37.532;2023-08-07T09:07:42;5.43;;;1.90;;
43297;SDS011;28892;55.640;37.532;2023-08-07T09:10:37;6.32;;;2.40;;
43297;SDS011;28892;55.640;37.532;2023-08-07T09:13:04;5.57;;;1.92;;
43297;SDS011;28892;55.640;37.532;2023-08-07T09:15:52;2.88;;;1.98;;
43297;SDS011;28892;55.640;37.532;2023-08-07T09:18:55;5.88;;;2.08;;
43297;SDS011;28892;55.640;37.532;2023-08-07T09:21:24;4.95;;;2.10;;
43297;SDS011;28892;55.640;37.532;2023-08-07T09:23:51;3.85;;;1.98;;
43297;SDS011;28892;55.640;37.532;2023-08-07T09:26:22;5.60;;;2.00;;
43297;SDS011;28892;55.640;37.532;2023-08-07T09:28:52;4.88;;;1.88;;
43297;SDS011;28892;55.640;37.532;2023-08-07T09:31:20;5.20;;;2.10;;
43297;SDS011;28892;55.640;37.532;2023-08-07T09:33:52;5.50;;;2.10;;
43297;SDS011;28892;55.640;37.532;2023-08-07T09:36:37;7.22;;;2.38;;
43297;SDS011;28892;55.640;37.532;2023-08-07T09:39:18;3.53;;;2.85;;
43297;SDS011;28892;55.640;37.532;2023-08-07T09:41:51;3.90;;;1.90;;
43297;SDS011;28892;55.640;37.532;2023-08-07T09:44:20;10.13;;;2.83;;
43297;SDS011;28892;55.640;37.532;2023-08-07T09:46:47;5.07;;;1.80;;
43297;SDS011;28892;55.640;37.532;2023-08-07T09:49:12;4.90;;;2.05;;
43297;SDS011;28892;55.640;37.532;2023-08-07T09:54:42;5.47;;;2.00;;
43297;SDS011;28892;55.640;37.532;2023-08-07T09:57:48;3.38;;;1.83;;
43297;SDS011;28892;55.640;37.532;2023-08-07T10:00:15;4.05;;;2.08;;
43297;SDS011;28892;55.640;37.532;2023-08-07T10:02:42;11.68;;;2.65;;
43297;SDS011;28892;55.640;37.532;2023-08-07T10:05:11;4.50;;;2.25;;
43297;SDS011;28892;55.640;37.532;2023-08-07T10:07:43;4.68;;;2.15;;
43297;SDS011;28892;55.640;37.532;2023-08-07T10:10:10;7.93;;;2.00;;
43297;SDS011;28892;55.640;37.532;2023-08-07T10:16:23;4.80;;;2.08;;
43297;SDS011;28892;55.640;37.532;2023-08-07T10:18:51;4.05;;;1.90;;
43297;SDS011;28892;55.640;37.532;2023-08-07T10:21:17;4.80;;;1.75;;
43297;SDS011;28892;55.640;37.532;2023-08-07T10:23:46;5.82;;;2.45;;
43297;SDS011;28892;55.640;37.532;2023-08-07T10:27:25;4.07;;;1.90;;
43297;SDS011;28892;55.640;37.532;2023-08-07T10:30:02;3.15;;;2.20;;
43297;SDS011;28892;55.640;37.532;2023-08-07T10:33:03;4.43;;;1.88;;
43297;SDS011;28892;55.640;37.532;2023-08-07T10:35:33;3.42;;;2.00;;
43297;SDS011;28892;55.640;37.532;2023-08-07T10:38:34;6.68;;;2.28;;
43297;SDS011;28892;55.640;37.532;2023-08-07T10:41:02;8.82;;;2.08;;
43297;SDS011;28892;55.640;37.532;2023-08-07T10:43:50;4.93;;;2.35;;
43297;SDS011;28892;55.640;37.532;2023-08-07T10:47:08;4.85;;;2.15;;
43297;SDS011;28892;55.640;37.532;2023-08-07T10:49:46;4.75;;;2.40;;
43297;SDS011;28892;55.640;37.532;2023-08-07T10:53:11;2.05;;;1.85;;
43297;SDS011;28892;55.640;37.532;2023-08-07T10:55:57;6.32;;;2.13;;
43297;SDS011;28892;55.640;37.532;2023-08-07T10:58:24;4.47;;;2.00;;
43297;SDS011;28892;55.640;37.532;2023-08-07T11:03:48;4.77;;;2.50;;
43297;SDS011;28892;55.640;37.532;2023-08-07T11:06:56;4.75;;;2.25;;
43297;SDS011;28892;55.640;37.532;2023-08-07T11:12:58;7.20;;;2.60;;
43297;SDS011;28892;55.640;37.532;2023-08-07T11:15:37;4.32;;;2.22;;
43297;SDS011;28892;55.640;37.532;2023-08-07T11:18:58;3.90;;;2.25;;
43297;SDS011;28892;55.640;37.532;2023-08-07T11:21:54;3.63;;;2.05;;
43297;SDS011;28892;55.640;37.532;2023-08-07T11:24:27;8.30;;;2.35;;
43297;SDS011;28892;55.640;37.532;2023-08-07T11:27:09;7.63;;;2.40;;
43297;SDS011;28892;55.640;37.532;2023-08-07T11:30:13;4.57;;;2.35;;
43297;SDS011;28892;55.640;37.532;2023-08-07T11:33:40;4.63;;;2.33;;
43297;SDS011;28892;55.640;37.532;2023-08-07T11:37:03;5.60;;;2.15;;
43297;SDS011;28892;55.640;37.532;2023-08-07T11:39:32;4.55;;;2.45;;
43297;SDS011;28892;55.640;37.532;2023-08-07T11:42:07;5.68;;;2.50;;
43297;SDS011;28892;55.640;37.532;2023-08-07T11:44:36;4.18;;;2.30;;
43297;SDS011;28892;55.640;37.532;2023-08-07T11:47:05;3.63;;;2.50;;
43297;SDS011;28892;55.640;37.532;2023-08-07T11:49:40;5.32;;;2.70;;
43297;SDS011;28892;55.640;37.532;2023-08-07T11:52:06;3.55;;;2.53;;
43297;SDS011;28892;55.640;37.532;2023-08-07T11:54:32;5.40;;;2.20;;
43297;SDS011;28892;55.640;37.532;2023-08-07T11:56:58;3.22;;;2.60;;
43297;SDS011;28892;55.640;37.532;2023-08-07T11:59:24;6.47;;;2.58;;
43297;SDS011;28892;55.640;37.532;2023-08-07T12:01:51;7.75;;;2.60;;
43297;SDS011;28892;55.640;37.532;2023-08-07T12:04:17;5.10;;;2.60;;
43297;SDS011;28892;55.640;37.532;2023-08-07T12:09:31;5.43;;;2.40;;
43297;SDS011;28892;55.640;37.532;2023-08-07T12:11:57;4.88;;;2.30;;
43297;SDS011;28892;55.640;37.532;2023-08-07T12:14:27;4.28;;;2.28;;
43297;SDS011;28892;55.640;37.532;2023-08-07T12:17:03;2.92;;;2.50;;
43297;SDS011;28892;55.640;37.532;2023-08-07T12:19:39;4.88;;;2.67;;
43297;SDS011;28892;55.640;37.532;2023-08-07T12:22:11;6.90;;;2.40;;
43297;SDS011;28892;55.640;37.532;2023-08-07T12:24:46;2.78;;;2.38;;
43297;SDS011;28892;55.640;37.532;2023-08-07T12:27:31;3.42;;;2.60;;
43297;SDS011;28892;55.640;37.532;2023-08-07T12:30:56;5.57;;;2.55;;
43297;SDS011;28892;55.640;37.532;2023-08-07T12:38:06;3.70;;;2.50;;
43297;SDS011;28892;55.640;37.532;2023-08-07T12:40:44;3.95;;;2.40;;
43297;SDS011;28892;55.640;37.532;2023-08-07T12:43:11;6.15;;;2.95;;
43297;SDS011;28892;55.640;37.532;2023-08-07T12:45:37;3.45;;;2.25;;
43297;SDS011;28892;55.640;37.532;2023-08-07T12:48:03;4.13;;;2.22;;
43297;SDS011;28892;55.640;37.532;2023-08-07T12:50:29;5.53;;;2.70;;
43297;SDS011;28892;55.640;37.532;2023-08-07T12:53:11;3.97;;;2.47;;
43297;SDS011;28892;55.640;37.532;2023-08-07T12:59:14;6.45;;;2.50;;
43297;SDS011;28892;55.640;37.532;2023-08-07T13:01:50;3.90;;;2.72;;
43297;SDS011;28892;55.640;37.532;2023-08-07T13:04:27;4.53;;;2.67;;
43297;SDS011;28892;55.640;37.532;2023-08-07T13:08:08;6.68;;;2.28;;
43297;SDS011;28892;55.640;37.532;2023-08-07T13:10:10;3.75;;;2.47;;
43297;SDS011;28892;55.640;37.532;2023-08-07T13:12:38;6.07;;;2.90;;
43297;SDS011;28892;55.640;37.532;2023-08-07T13:18:10;5.50;;;2.40;;
43297;SDS011;28892;55.640;37.532;2023-08-07T13:20:36;4.57;;;2.60;;
43297;SDS011;28892;55.640;37.532;2023-08-07T13:26:10;6.05;;;2.60;;
43297;SDS011;28892;55.640;37.532;2023-08-07T13:40:37;6.10;;;2.90;;
43297;SDS011;28892;55.640;37.532;2023-08-07T13:43:29;3.35;;;2.65;;
43297;SDS011;28892;55.640;37.532;2023-08-07T13:46:59;8.02;;;2.88;;
43297;SDS011;28892;55.640;37.532;2023-08-07T13:50:20;5.55;;;2.63;;
43297;SDS011;28892;55.640;37.532;2023-08-07T13:52:49;6.25;;;2.50;;
43297;SDS011;28892;55.640;37.532;2023-08-07T13:55:28;7.95;;;3.28;;
43297;SDS011;28892;55.640;37.532;2023-08-07T14:07:33;2.92;;;2.45;;
43297;SDS011;28892;55.640;37.532;2023-08-07T14:10:02;7.18;;;2.83;;
43297;SDS011;28892;55.640;37.532;2023-08-07T14:12:38;4.43;;;2.38;;
43297;SDS011;28892;55.640;37.532;2023-08-07T14:16:03;6.95;;;2.90;;
43297;SDS011;28892;55.640;37.532;2023-08-07T14:18:30;4.38;;;2.78;;
43297;SDS011;28892;55.640;37.532;2023-08-07T14:21:26;2.72;;;2.53;;
43297;SDS011;28892;55.640;37.532;2023-08-07T14:24:00;7.38;;;3.10;;
43297;SDS011;28892;55.640;37.532;2023-08-07T14:30:27;6.60;;;2.97;;
43297;SDS011;28892;55.640;37.532;2023-08-07T14:33:11;4.25;;;2.67;;
43297;SDS011;28892;55.640;37.532;2023-08-07T14:35:44;6.25;;;3.13;;
43297;SDS011;28892;55.640;37.532;2023-08-07T14:38:13;5.38;;;2.60;;
43297;SDS011;28892;55.640;37.532;2023-08-07T14:40:44;5.38;;;3.00;;
43297;SDS011;28892;55.640;37.532;2023-08-07T14:43:10;5.78;;;2.55;;
43297;SDS011;28892;55.640;37.532;2023-08-07T14:45:36;5.82;;;2.63;;
43297;SDS011;28892;55.640;37.532;2023-08-07T14:48:03;9.65;;;3.00;;
43297;SDS011;28892;55.640;37.532;2023-08-07T14:50:29;3.70;;;2.65;;
43297;SDS011;28892;55.640;37.532;2023-08-07T14:53:02;6.78;;;2.50;;
43297;SDS011;28892;55.640;37.532;2023-08-07T14:57:53;5.40;;;2.60;;
43297;SDS011;28892;55.640;37.532;2023-08-07T15:00:19;6.22;;;2.30;;
43297;SDS011;28892;55.640;37.532;2023-08-07T15:02:46;6.35;;;2.70;;
43297;SDS011;28892;55.640;37.532;2023-08-07T15:09:03;7.03;;;2.60;;
43297;SDS011;28892;55.640;37.532;2023-08-07T15:11:29;6.53;;;3.13;;
43297;SDS011;28892;55.640;37.532;2023-08-07T15:13:57;4.28;;;2.67;;
43297;SDS011;28892;55.640;37.532;2023-08-07T15:16:24;5.50;;;2.75;;
43297;SDS011;28892;55.640;37.532;2023-08-07T15:18:58;5.45;;;2.58;;
43297;SDS011;28892;55.640;37.532;2023-08-07T15:22:03;4.45;;;2.70;;
43297;SDS011;28892;55.640;37.532;2023-08-07T15:24:32;3.85;;;2.92;;
43297;SDS011;28892;55.640;37.532;2023-08-07T15:28:11;3.67;;;2.58;;
43297;SDS011;28892;55.640;37.532;2023-08-07T15:30:37;4.75;;;2.90;;
43297;SDS011;28892;55.640;37.532;2023-08-07T15:33:04;3.33;;;2.53;;
43297;SDS011;28892;55.640;37.532;2023-08-07T15:35:32;4.45;;;2.28;;
43297;SDS011;28892;55.640;37.532;2023-08-07T15:38:01;3.63;;;2.50;;
43297;SDS011;28892;55.640;37.532;2023-08-07T15:40:30;5.68;;;2.67;;
43297;SDS011;28892;55.640;37.532;2023-08-07T15:43:05;3.00;;;2.50;;
43297;SDS011;28892;55.640;37.532;2023-08-07T15:45:31;7.25;;;2.70;;
43297;SDS011;28892;55.640;37.532;2023-08-07T15:47:58;7.22;;;2.40;;
43297;SDS011;28892;55.640;37.532;2023-08-07T15:50:26;4.45;;;2.38;;
43297;SDS011;28892;55.640;37.532;2023-08-07T15:53:19;5.55;;;2.55;;
43297;SDS011;28892;55.640;37.532;2023-08-07T15:55:51;3.33;;;2.58;;
43297;SDS011;28892;55.640;37.532;2023-08-07T15:58:25;4.25;;;2.53;;
43297;SDS011;28892;55.640;37.532;2023-08-07T16:01:09;5.95;;;2.38;;
43297;SDS011;28892;55.640;37.532;2023-08-07T16:03:56;9.18;;;2.72;;
43297;SDS011;28892;55.640;37.532;2023-08-07T16:09:27;7.53;;;2.65;;
43297;SDS011;28892;55.640;37.532;2023-08-07T16:11:53;8.43;;;2.70;;
43297;SDS011;28892;55.640;37.532;2023-08-07T16:17:50;3.22;;;2.50;;
43297;SDS011;28892;55.640;37.532;2023-08-07T16:21:07;6.20;;;2.92;;
43297;SDS011;28892;55.640;37.532;2023-08-07T16:23:39;5.35;;;2.40;;
43297;SDS011;28892;55.640;37.532;2023-08-07T16:26:06;9.35;;;2.60;;
43297;SDS011;28892;55.640;37.532;2023-08-07T16:36:43;4.25;;;3.15;;
43297;SDS011;28892;55.640;37.532;2023-08-07T16:44:04;3.30;;;2.30;;
43297;SDS011;28892;55.640;37.532;2023-08-07T16:47:16;5.70;;;2.42;;
43297;SDS011;28892;55.640;37.532;2023-08-07T16:50:10;4.72;;;2.70;;
43297;SDS011;28892;55.640;37.532;2023-08-07T16:53:08;3.50;;;2.72;;
43297;SDS011;28892;55.640;37.532;2023-08-07T16:55:39;5.57;;;2.80;;
43297;SDS011;28892;55.640;37.532;2023-08-07T16:58:13;7.22;;;2.50;;